sensor_id;sensor_type;location;lat;lon;timestamp;temperature;humidity
4934;DHT22;2482;49.154;8.254;2024-01-30T00:01:16;1.50;99.90
4934;DHT22;2482;49.154;8.254;2024-01-30T00:03:44;1.60;99.90
4934;DHT22;2482;49.154;8.254;2024-01-30T00:06:11;1.40;99.90
4934;DHT22;2482;49.154;8.254;2024-01-30T00:08:39;1.30;99.90
4934;DHT22;2482;49.154;8.254;2024-01-30T00:11:07;1.30;99.90
4934;DHT22;2482;49.154;8.254;2024-01-30T00:13:34;1.30;99.90
4934;DHT22;2482;49.154;8.254;2024-01-30T00:16:01;1.20;99.90
4934;DHT22;2482;49.154;8.254;2024-01-30T00:18:28;1.40;99.90
4934;DHT22;2482;49.154;8.254;2024-01-30T00:20:55;1.70;99.90
4934;DHT22;2482;49.154;8.254;2024-01-30T00:23:22;1.60;99.90
4934;DHT22;2482;49.154;8.254;2024-01-30T00:25:50;1.80;99.90
4934;DHT22;2482;49.154;8.254;2024-01-30T00:28:17;1.70;99.90
4934;DHT22;2482;49.154;8.254;2024-01-30T00:30:44;1.70;99.90
4934;DHT22;2482;49.154;8.254;2024-01-30T00:33:11;1.80;99.90
4934;DHT22;2482;49.154;8.254;2024-01-30T00:35:38;1.80;99.90
4934;DHT22;2482;49.154;8.254;2024-01-30T00:38:05;1.70;99.90
4934;DHT22;2482;49.154;8.254;2024-01-30T00:40:34;1.60;99.90
4934;DHT22;2482;49.154;8.254;2024-01-30T00:43:01;1.30;99.90
4934;DHT22;2482;49.154;8.254;2024-01-30T00:45:28;1.20;99.90
4934;DHT22;2482;49.154;8.254;2024-01-30T00:47:55;1.00;99.90
4934;DHT22;2482;49.154;8.254;2024-01-30T00:50:22;1.00;99.90
4934;DHT22;2482;49.154;8.254;2024-01-30T00:52:49;0.80;99.90
4934;DHT22;2482;49.154;8.254;2024-01-30T00:55:18;0.70;99.90
4934;DHT22;2482;49.154;8.254;2024-01-30T00:57:50;0.70;99.90
4934;DHT22;2482;49.154;8.254;2024-01-30T01:00:17;0.60;99.90
4934;DHT22;2482;49.154;8.254;2024-01-30T01:02:44;0.60;99.90
4934;DHT22;2482;49.154;8.254;2024-01-30T01:05:11;0.70;99.90
4934;DHT22;2482;49.154;8.254;2024-01-30T01:07:40;0.70;99.90
4934;DHT22;2482;49.154;8.254;2024-01-30T01:10:09;0.70;99.90
4934;DHT22;2482;49.154;8.254;2024-01-30T01:12:39;0.70;99.90
4934;DHT22;2482;49.154;8.254;2024-01-30T01:15:13;0.60;99.90
4934;DHT22;2482;49.154;8.254;2024-01-30T01:17:40;0.60;99.90
4934;DHT22;2482;49.154;8.254;2024-01-30T01:20:12;0.60;99.90
4934;DHT22;2482;49.154;8.254;2024-01-30T01:22:40;0.60;99.90
4934;DHT22;2482;49.154;8.254;2024-01-30T01:25:07;0.60;99.90
4934;DHT22;2482;49.154;8.254;2024-01-30T01:27:35;0.70;99.90
4934;DHT22;2482;49.154;8.254;2024-01-30T01:30:10;0.70;99.90
4934;DHT22;2482;49.154;8.254;2024-01-30T01:32:38;0.80;99.90
4934;DHT22;2482;49.154;8.254;2024-01-30T01:35:11;0.80;99.90
4934;DHT22;2482;49.154;8.254;2024-01-30T01:37:39;0.70;99.90
4934;DHT22;2482;49.154;8.254;2024-01-30T01:40:06;0.80;99.90
4934;DHT22;2482;49.154;8.254;2024-01-30T01:42:34;0.70;99.90
4934;DHT22;2482;49.154;8.254;2024-01-30T01:45:02;0.60;99.90
4934;DHT22;2482;49.154;8.254;2024-01-30T01:47:29;0.60;99.90
4934;DHT22;2482;49.154;8.254;2024-01-30T01:49:56;0.60;99.90
4934;DHT22;2482;49.154;8.254;2024-01-30T01:52:24;0.60;99.90
4934;DHT22;2482;49.154;8.254;2024-01-30T01:54:51;0.60;99.90
4934;DHT22;2482;49.154;8.254;2024-01-30T01:57:18;0.60;99.90
4934;DHT22;2482;49.154;8.254;2024-01-30T01:59:47;0.70;99.90
4934;DHT22;2482;49.154;8.254;2024-01-30T02:02:16;1.20;99.90
4934;DHT22;2482;49.154;8.254;2024-01-30T02:04:45;1.30;99.90
4934;DHT22;2482;49.154;8.254;2024-01-30T02:07:13;1.40;99.90
4934;DHT22;2482;49.154;8.254;2024-01-30T02:09:40;1.40;99.90
4934;DHT22;2482;49.154;8.254;2024-01-30T02:12:07;1.10;99.90
4934;DHT22;2482;49.154;8.254;2024-01-30T02:14:47;1.00;99.90
4934;DHT22;2482;49.154;8.254;2024-01-30T02:17:16;0.90;99.90
4934;DHT22;2482;49.154;8.254;2024-01-30T02:19:43;0.80;99.90
4934;DHT22;2482;49.154;8.254;2024-01-30T02:22:11;0.70;99.90
4934;DHT22;2482;49.154;8.254;2024-01-30T02:24:38;0.60;99.90
4934;DHT22;2482;49.154;8.254;2024-01-30T02:27:05;0.60;99.90
4934;DHT22;2482;49.154;8.254;2024-01-30T02:29:32;0.60;99.90
4934;DHT22;2482;49.154;8.254;2024-01-30T02:31:59;0.70;99.90
4934;DHT22;2482;49.154;8.254;2024-01-30T02:34:26;0.60;99.90
4934;DHT22;2482;49.154;8.254;2024-01-30T02:36:53;0.60;99.90
4934;DHT22;2482;49.154;8.254;2024-01-30T02:39:20;0.60;99.90
4934;DHT22;2482;49.154;8.254;2024-01-30T02:41:47;1.00;99.90
4934;DHT22;2482;49.154;8.254;2024-01-30T02:44:14;1.10;99.90
4934;DHT22;2482;49.154;8.254;2024-01-30T02:46:41;1.10;99.90
4934;DHT22;2482;49.154;8.254;2024-01-30T02:49:08;1.00;99.90
4934;DHT22;2482;49.154;8.254;2024-01-30T02:51:36;1.00;99.90
4934;DHT22;2482;49.154;8.254;2024-01-30T02:54:03;0.90;99.90
4934;DHT22;2482;49.154;8.254;2024-01-30T02:56:30;1.10;99.90
4934;DHT22;2482;49.154;8.254;2024-01-30T02:58:57;1.50;99.90
4934;DHT22;2482;49.154;8.254;2024-01-30T03:01:24;1.60;99.90
4934;DHT22;2482;49.154;8.254;2024-01-30T03:03:51;1.80;99.90
4934;DHT22;2482;49.154;8.254;2024-01-30T03:06:19;1.90;99.90
4934;DHT22;2482;49.154;8.254;2024-01-30T03:08:46;2.00;99.90
4934;DHT22;2482;49.154;8.254;2024-01-30T03:11:13;2.00;99.90
4934;DHT22;2482;49.154;8.254;2024-01-30T03:13:40;1.90;99.90
4934;DHT22;2482;49.154;8.254;2024-01-30T03:16:08;1.80;99.90
4934;DHT22;2482;49.154;8.254;2024-01-30T03:18:35;2.10;99.90
4934;DHT22;2482;49.154;8.254;2024-01-30T03:21:02;2.00;99.90
4934;DHT22;2482;49.154;8.254;2024-01-30T03:23:30;2.20;99.90
4934;DHT22;2482;49.154;8.254;2024-01-30T03:25:59;1.90;99.90
4934;DHT22;2482;49.154;8.254;2024-01-30T03:28:25;1.60;99.90
4934;DHT22;2482;49.154;8.254;2024-01-30T03:30:53;1.40;99.90
4934;DHT22;2482;49.154;8.254;2024-01-30T03:33:20;1.30;99.90
4934;DHT22;2482;49.154;8.254;2024-01-30T03:35:47;1.50;99.90
4934;DHT22;2482;49.154;8.254;2024-01-30T03:38:14;1.80;99.90
4934;DHT22;2482;49.154;8.254;2024-01-30T03:40:40;2.00;99.90
4934;DHT22;2482;49.154;8.254;2024-01-30T03:43:07;1.90;99.90
4934;DHT22;2482;49.154;8.254;2024-01-30T03:45:35;1.50;99.90
4934;DHT22;2482;49.154;8.254;2024-01-30T03:48:02;1.30;99.90
4934;DHT22;2482;49.154;8.254;2024-01-30T03:50:29;1.10;99.90
4934;DHT22;2482;49.154;8.254;2024-01-30T03:52:56;0.80;99.90
4934;DHT22;2482;49.154;8.254;2024-01-30T03:55:23;0.60;99.90
4934;DHT22;2482;49.154;8.254;2024-01-30T03:57:50;0.60;99.90
4934;DHT22;2482;49.154;8.254;2024-01-30T04:00:17;0.60;99.90
4934;DHT22;2482;49.154;8.254;2024-01-30T04:02:45;0.80;99.90
4934;DHT22;2482;49.154;8.254;2024-01-30T04:05:12;1.00;99.90
4934;DHT22;2482;49.154;8.254;2024-01-30T04:07:39;1.40;99.90
4934;DHT22;2482;49.154;8.254;2024-01-30T04:10:06;1.70;99.90
4934;DHT22;2482;49.154;8.254;2024-01-30T04:12:34;1.70;99.90
4934;DHT22;2482;49.154;8.254;2024-01-30T04:15:01;1.70;99.90
4934;DHT22;2482;49.154;8.254;2024-01-30T04:17:29;1.70;99.90
4934;DHT22;2482;49.154;8.254;2024-01-30T04:19:56;1.70;99.90
4934;DHT22;2482;49.154;8.254;2024-01-30T04:22:24;1.40;99.90
4934;DHT22;2482;49.154;8.254;2024-01-30T04:24:51;1.30;99.90
4934;DHT22;2482;49.154;8.254;2024-01-30T04:27:18;1.40;99.90
4934;DHT22;2482;49.154;8.254;2024-01-30T04:29:45;1.30;99.90
4934;DHT22;2482;49.154;8.254;2024-01-30T04:32:12;1.30;99.90
4934;DHT22;2482;49.154;8.254;2024-01-30T04:34:39;1.30;99.90
4934;DHT22;2482;49.154;8.254;2024-01-30T04:37:06;1.20;99.90
4934;DHT22;2482;49.154;8.254;2024-01-30T04:39:33;1.20;99.90
4934;DHT22;2482;49.154;8.254;2024-01-30T04:42:02;0.70;99.90
4934;DHT22;2482;49.154;8.254;2024-01-30T04:44:32;0.50;99.90
4934;DHT22;2482;49.154;8.254;2024-01-30T04:46:59;0.30;99.90
4934;DHT22;2482;49.154;8.254;2024-01-30T04:49:28;0.20;99.90
4934;DHT22;2482;49.154;8.254;2024-01-30T04:51:56;0.20;99.90
4934;DHT22;2482;49.154;8.254;2024-01-30T04:54:23;0.40;99.90
4934;DHT22;2482;49.154;8.254;2024-01-30T04:56:50;0.50;99.90
4934;DHT22;2482;49.154;8.254;2024-01-30T04:59:18;0.50;99.90
4934;DHT22;2482;49.154;8.254;2024-01-30T05:01:45;0.40;99.90
4934;DHT22;2482;49.154;8.254;2024-01-30T05:04:12;0.50;99.90
4934;DHT22;2482;49.154;8.254;2024-01-30T05:06:43;0.40;99.90
4934;DHT22;2482;49.154;8.254;2024-01-30T05:09:10;0.50;99.90
4934;DHT22;2482;49.154;8.254;2024-01-30T05:11:39;0.70;99.90
4934;DHT22;2482;49.154;8.254;2024-01-30T05:14:07;0.80;99.90
4934;DHT22;2482;49.154;8.254;2024-01-30T05:16:35;0.80;99.90
4934;DHT22;2482;49.154;8.254;2024-01-30T05:19:02;1.10;99.90
4934;DHT22;2482;49.154;8.254;2024-01-30T05:21:29;1.20;99.90
4934;DHT22;2482;49.154;8.254;2024-01-30T05:23:56;1.30;99.90
4934;DHT22;2482;49.154;8.254;2024-01-30T05:26:23;1.30;99.90
4934;DHT22;2482;49.154;8.254;2024-01-30T05:28:50;1.20;99.90
4934;DHT22;2482;49.154;8.254;2024-01-30T05:31:18;0.90;99.90
4934;DHT22;2482;49.154;8.254;2024-01-30T05:33:46;0.70;99.90
4934;DHT22;2482;49.154;8.254;2024-01-30T05:36:13;0.50;99.90
4934;DHT22;2482;49.154;8.254;2024-01-30T05:38:40;0.50;99.90
4934;DHT22;2482;49.154;8.254;2024-01-30T05:41:08;0.60;99.90
4934;DHT22;2482;49.154;8.254;2024-01-30T05:43:35;1.00;99.90
4934;DHT22;2482;49.154;8.254;2024-01-30T05:46:02;1.10;99.90
4934;DHT22;2482;49.154;8.254;2024-01-30T05:48:29;1.40;99.90
4934;DHT22;2482;49.154;8.254;2024-01-30T05:50:58;1.40;99.90
4934;DHT22;2482;49.154;8.254;2024-01-30T05:53:26;1.20;99.90
4934;DHT22;2482;49.154;8.254;2024-01-30T05:55:53;1.00;99.90
4934;DHT22;2482;49.154;8.254;2024-01-30T05:58:20;0.90;99.90
4934;DHT22;2482;49.154;8.254;2024-01-30T06:00:48;0.70;99.90
4934;DHT22;2482;49.154;8.254;2024-01-30T06:03:15;0.70;99.90
4934;DHT22;2482;49.154;8.254;2024-01-30T06:05:42;0.60;99.90
4934;DHT22;2482;49.154;8.254;2024-01-30T06:08:09;0.50;99.90
4934;DHT22;2482;49.154;8.254;2024-01-30T06:10:36;0.50;99.90
4934;DHT22;2482;49.154;8.254;2024-01-30T06:13:03;0.50;99.90
4934;DHT22;2482;49.154;8.254;2024-01-30T06:15:31;0.60;99.90
4934;DHT22;2482;49.154;8.254;2024-01-30T06:17:59;0.60;99.90
4934;DHT22;2482;49.154;8.254;2024-01-30T06:20:26;0.60;99.90
4934;DHT22;2482;49.154;8.254;2024-01-30T06:22:53;0.50;99.90
4934;DHT22;2482;49.154;8.254;2024-01-30T06:25:20;0.40;99.90
4934;DHT22;2482;49.154;8.254;2024-01-30T06:27:47;0.40;99.90
4934;DHT22;2482;49.154;8.254;2024-01-30T06:30:14;0.40;99.90
4934;DHT22;2482;49.154;8.254;2024-01-30T06:32:42;0.40;99.90
4934;DHT22;2482;49.154;8.254;2024-01-30T06:35:09;0.40;99.90
4934;DHT22;2482;49.154;8.254;2024-01-30T06:37:37;0.30;99.90
4934;DHT22;2482;49.154;8.254;2024-01-30T06:40:04;0.30;99.90
4934;DHT22;2482;49.154;8.254;2024-01-30T06:42:32;0.30;99.90
4934;DHT22;2482;49.154;8.254;2024-01-30T06:44:59;0.40;99.90
4934;DHT22;2482;49.154;8.254;2024-01-30T06:47:26;0.30;99.90
4934;DHT22;2482;49.154;8.254;2024-01-30T06:49:53;0.40;99.90
4934;DHT22;2482;49.154;8.254;2024-01-30T06:52:20;0.30;99.90
4934;DHT22;2482;49.154;8.254;2024-01-30T06:54:47;0.50;99.90
4934;DHT22;2482;49.154;8.254;2024-01-30T06:57:15;0.70;99.90
4934;DHT22;2482;49.154;8.254;2024-01-30T06:59:42;0.70;99.90
4934;DHT22;2482;49.154;8.254;2024-01-30T07:02:10;0.60;99.90
4934;DHT22;2482;49.154;8.254;2024-01-30T07:04:38;0.40;99.90
4934;DHT22;2482;49.154;8.254;2024-01-30T07:07:13;0.40;99.90
4934;DHT22;2482;49.154;8.254;2024-01-30T07:09:42;0.30;99.90
4934;DHT22;2482;49.154;8.254;2024-01-30T07:12:09;0.30;99.90
4934;DHT22;2482;49.154;8.254;2024-01-30T07:14:36;0.40;99.90
4934;DHT22;2482;49.154;8.254;2024-01-30T07:17:03;0.50;99.90
4934;DHT22;2482;49.154;8.254;2024-01-30T07:19:30;0.60;99.90
4934;DHT22;2482;49.154;8.254;2024-01-30T07:21:58;0.60;99.90
4934;DHT22;2482;49.154;8.254;2024-01-30T07:24:25;0.60;99.90
4934;DHT22;2482;49.154;8.254;2024-01-30T07:26:52;0.80;99.90
4934;DHT22;2482;49.154;8.254;2024-01-30T07:29:19;0.80;99.90
4934;DHT22;2482;49.154;8.254;2024-01-30T07:31:47;0.70;99.90
4934;DHT22;2482;49.154;8.254;2024-01-30T07:34:14;0.80;99.90
4934;DHT22;2482;49.154;8.254;2024-01-30T07:36:41;0.70;99.90
4934;DHT22;2482;49.154;8.254;2024-01-30T07:39:08;0.60;99.90
4934;DHT22;2482;49.154;8.254;2024-01-30T07:41:36;0.50;99.90
4934;DHT22;2482;49.154;8.254;2024-01-30T07:44:03;0.60;99.90
4934;DHT22;2482;49.154;8.254;2024-01-30T07:46:30;0.60;99.90
4934;DHT22;2482;49.154;8.254;2024-01-30T07:48:58;0.60;99.90
4934;DHT22;2482;49.154;8.254;2024-01-30T07:51:25;0.60;99.90
4934;DHT22;2482;49.154;8.254;2024-01-30T07:53:52;0.80;99.90
4934;DHT22;2482;49.154;8.254;2024-01-30T07:56:19;0.90;99.90
4934;DHT22;2482;49.154;8.254;2024-01-30T07:58:46;0.90;99.90
4934;DHT22;2482;49.154;8.254;2024-01-30T08:01:15;1.00;99.90
4934;DHT22;2482;49.154;8.254;2024-01-30T08:03:42;1.00;99.90
4934;DHT22;2482;49.154;8.254;2024-01-30T08:06:10;1.10;99.90
4934;DHT22;2482;49.154;8.254;2024-01-30T08:08:37;1.30;99.90
4934;DHT22;2482;49.154;8.254;2024-01-30T08:11:04;1.50;99.90
4934;DHT22;2482;49.154;8.254;2024-01-30T08:13:32;1.60;99.90
4934;DHT22;2482;49.154;8.254;2024-01-30T08:15:59;1.70;99.90
4934;DHT22;2482;49.154;8.254;2024-01-30T08:18:26;1.80;99.90
4934;DHT22;2482;49.154;8.254;2024-01-30T08:20:53;1.90;99.90
4934;DHT22;2482;49.154;8.254;2024-01-30T08:23:20;2.00;99.90
4934;DHT22;2482;49.154;8.254;2024-01-30T08:25:47;2.10;99.90
4934;DHT22;2482;49.154;8.254;2024-01-30T08:28:14;2.20;99.90
4934;DHT22;2482;49.154;8.254;2024-01-30T08:30:45;2.30;99.90
4934;DHT22;2482;49.154;8.254;2024-01-30T08:33:12;2.40;99.90
4934;DHT22;2482;49.154;8.254;2024-01-30T08:35:39;2.40;99.90
4934;DHT22;2482;49.154;8.254;2024-01-30T08:38:06;2.50;99.90
4934;DHT22;2482;49.154;8.254;2024-01-30T08:40:33;2.40;99.90
4934;DHT22;2482;49.154;8.254;2024-01-30T08:43:00;2.40;99.90
4934;DHT22;2482;49.154;8.254;2024-01-30T08:45:27;2.20;99.90
4934;DHT22;2482;49.154;8.254;2024-01-30T08:47:54;2.00;99.90
4934;DHT22;2482;49.154;8.254;2024-01-30T08:50:22;1.90;99.90
4934;DHT22;2482;49.154;8.254;2024-01-30T08:52:49;2.00;99.90
4934;DHT22;2482;49.154;8.254;2024-01-30T08:55:16;2.10;99.90
4934;DHT22;2482;49.154;8.254;2024-01-30T08:57:43;2.20;99.90
4934;DHT22;2482;49.154;8.254;2024-01-30T09:00:11;2.30;99.90
4934;DHT22;2482;49.154;8.254;2024-01-30T09:02:38;2.40;99.90
4934;DHT22;2482;49.154;8.254;2024-01-30T09:05:05;2.50;99.90
4934;DHT22;2482;49.154;8.254;2024-01-30T09:07:33;2.70;99.90
4934;DHT22;2482;49.154;8.254;2024-01-30T09:10:00;2.90;99.90
4934;DHT22;2482;49.154;8.254;2024-01-30T09:12:27;2.90;99.90
4934;DHT22;2482;49.154;8.254;2024-01-30T09:14:54;3.10;99.90
4934;DHT22;2482;49.154;8.254;2024-01-30T09:17:22;3.10;99.90
4934;DHT22;2482;49.154;8.254;2024-01-30T09:19:49;3.20;99.90
4934;DHT22;2482;49.154;8.254;2024-01-30T09:22:16;3.20;99.90
4934;DHT22;2482;49.154;8.254;2024-01-30T09:24:43;3.50;99.90
4934;DHT22;2482;49.154;8.254;2024-01-30T09:27:10;3.60;99.90
4934;DHT22;2482;49.154;8.254;2024-01-30T09:29:37;3.70;99.90
4934;DHT22;2482;49.154;8.254;2024-01-30T09:32:06;4.00;99.90
4934;DHT22;2482;49.154;8.254;2024-01-30T09:34:33;4.00;99.90
4934;DHT22;2482;49.154;8.254;2024-01-30T09:37:00;4.20;99.90
4934;DHT22;2482;49.154;8.254;2024-01-30T09:39:27;4.40;99.90
4934;DHT22;2482;49.154;8.254;2024-01-30T09:42:20;4.60;99.90
4934;DHT22;2482;49.154;8.254;2024-01-30T09:44:56;4.70;99.90
4934;DHT22;2482;49.154;8.254;2024-01-30T09:47:23;4.90;99.90
4934;DHT22;2482;49.154;8.254;2024-01-30T09:49:51;5.00;99.90
4934;DHT22;2482;49.154;8.254;2024-01-30T09:52:18;5.10;99.90
4934;DHT22;2482;49.154;8.254;2024-01-30T09:54:45;5.30;99.90
4934;DHT22;2482;49.154;8.254;2024-01-30T09:57:13;5.50;99.90
4934;DHT22;2482;49.154;8.254;2024-01-30T09:59:42;5.60;99.90
4934;DHT22;2482;49.154;8.254;2024-01-30T10:02:10;5.50;99.90
4934;DHT22;2482;49.154;8.254;2024-01-30T10:04:37;5.50;99.90
4934;DHT22;2482;49.154;8.254;2024-01-30T10:07:04;5.60;99.90
4934;DHT22;2482;49.154;8.254;2024-01-30T10:09:32;5.60;99.90
4934;DHT22;2482;49.154;8.254;2024-01-30T10:12:01;5.80;99.90
4934;DHT22;2482;49.154;8.254;2024-01-30T10:14:30;5.70;99.90
4934;DHT22;2482;49.154;8.254;2024-01-30T10:16:57;5.70;99.90
4934;DHT22;2482;49.154;8.254;2024-01-30T10:19:25;5.80;99.90
4934;DHT22;2482;49.154;8.254;2024-01-30T10:21:52;6.00;99.90
4934;DHT22;2482;49.154;8.254;2024-01-30T10:24:24;5.90;99.90
4934;DHT22;2482;49.154;8.254;2024-01-30T10:26:51;6.10;99.90
4934;DHT22;2482;49.154;8.254;2024-01-30T10:29:19;6.20;99.90
4934;DHT22;2482;49.154;8.254;2024-01-30T10:31:56;6.30;99.90
4934;DHT22;2482;49.154;8.254;2024-01-30T10:34:30;6.60;99.90
4934;DHT22;2482;49.154;8.254;2024-01-30T10:37:10;6.80;99.90
4934;DHT22;2482;49.154;8.254;2024-01-30T10:39:45;6.90;99.90
4934;DHT22;2482;49.154;8.254;2024-01-30T10:42:14;6.90;99.90
4934;DHT22;2482;49.154;8.254;2024-01-30T10:44:57;7.00;99.90
4934;DHT22;2482;49.154;8.254;2024-01-30T10:47:29;7.00;99.90
4934;DHT22;2482;49.154;8.254;2024-01-30T10:49:57;7.20;99.90
4934;DHT22;2482;49.154;8.254;2024-01-30T10:52:26;7.20;99.90
4934;DHT22;2482;49.154;8.254;2024-01-30T10:54:54;7.40;99.90
4934;DHT22;2482;49.154;8.254;2024-01-30T10:57:26;7.50;99.90
4934;DHT22;2482;49.154;8.254;2024-01-30T10:59:57;7.50;99.90
4934;DHT22;2482;49.154;8.254;2024-01-30T11:02:26;7.60;99.90
4934;DHT22;2482;49.154;8.254;2024-01-30T11:04:59;7.80;99.90
4934;DHT22;2482;49.154;8.254;2024-01-30T11:07:29;7.90;99.90
4934;DHT22;2482;49.154;8.254;2024-01-30T11:12:32;8.30;99.90
4934;DHT22;2482;49.154;8.254;2024-01-30T11:15:05;8.50;99.90
4934;DHT22;2482;49.154;8.254;2024-01-30T11:17:51;8.60;99.90
4934;DHT22;2482;49.154;8.254;2024-01-30T11:20:29;8.80;99.90
4934;DHT22;2482;49.154;8.254;2024-01-30T11:22:59;9.00;99.90
4934;DHT22;2482;49.154;8.254;2024-01-30T11:25:28;9.10;99.90
4934;DHT22;2482;49.154;8.254;2024-01-30T11:27:58;9.20;99.90
4934;DHT22;2482;49.154;8.254;2024-01-30T11:30:26;9.30;99.90
4934;DHT22;2482;49.154;8.254;2024-01-30T11:35:44;9.50;99.90
4934;DHT22;2482;49.154;8.254;2024-01-30T11:38:14;9.50;99.90
4934;DHT22;2482;49.154;8.254;2024-01-30T11:40:42;9.70;99.90
4934;DHT22;2482;49.154;8.254;2024-01-30T11:43:11;9.80;99.90
4934;DHT22;2482;49.154;8.254;2024-01-30T11:45:38;10.00;99.90
4934;DHT22;2482;49.154;8.254;2024-01-30T11:48:06;9.90;99.90
4934;DHT22;2482;49.154;8.254;2024-01-30T11:50:39;10.10;99.90
4934;DHT22;2482;49.154;8.254;2024-01-30T11:53:07;10.20;99.90
4934;DHT22;2482;49.154;8.254;2024-01-30T11:55:34;10.30;99.90
4934;DHT22;2482;49.154;8.254;2024-01-30T11:58:04;10.30;99.90
4934;DHT22;2482;49.154;8.254;2024-01-30T12:00:31;10.30;99.90
4934;DHT22;2482;49.154;8.254;2024-01-30T12:03:00;10.50;99.90
4934;DHT22;2482;49.154;8.254;2024-01-30T12:05:28;10.60;99.90
4934;DHT22;2482;49.154;8.254;2024-01-30T12:07:56;10.70;99.90
4934;DHT22;2482;49.154;8.254;2024-01-30T12:10:28;10.70;99.90
4934;DHT22;2482;49.154;8.254;2024-01-30T12:12:56;10.80;99.90
4934;DHT22;2482;49.154;8.254;2024-01-30T12:15:24;10.80;99.90
4934;DHT22;2482;49.154;8.254;2024-01-30T12:17:51;10.80;99.90
4934;DHT22;2482;49.154;8.254;2024-01-30T12:20:19;10.90;99.90
4934;DHT22;2482;49.154;8.254;2024-01-30T12:22:49;11.10;99.90
4934;DHT22;2482;49.154;8.254;2024-01-30T12:25:18;11.10;99.90
4934;DHT22;2482;49.154;8.254;2024-01-30T12:27:49;11.10;99.90
4934;DHT22;2482;49.154;8.254;2024-01-30T12:30:19;11.20;99.90
4934;DHT22;2482;49.154;8.254;2024-01-30T12:32:50;11.20;99.90
4934;DHT22;2482;49.154;8.254;2024-01-30T12:35:19;11.30;99.90
4934;DHT22;2482;49.154;8.254;2024-01-30T12:37:49;11.20;99.90
4934;DHT22;2482;49.154;8.254;2024-01-30T12:40:17;11.30;99.90
4934;DHT22;2482;49.154;8.254;2024-01-30T12:42:48;11.30;99.90
4934;DHT22;2482;49.154;8.254;2024-01-30T12:45:16;11.40;99.90
4934;DHT22;2482;49.154;8.254;2024-01-30T12:47:48;11.60;99.90
4934;DHT22;2482;49.154;8.254;2024-01-30T12:50:15;11.40;99.90
4934;DHT22;2482;49.154;8.254;2024-01-30T12:52:44;11.50;99.90
4934;DHT22;2482;49.154;8.254;2024-01-30T12:55:16;11.60;99.90
4934;DHT22;2482;49.154;8.254;2024-01-30T12:57:43;11.30;99.90
4934;DHT22;2482;49.154;8.254;2024-01-30T13:00:11;11.30;99.90
4934;DHT22;2482;49.154;8.254;2024-01-30T13:02:38;11.30;99.90
4934;DHT22;2482;49.154;8.254;2024-01-30T13:05:06;11.30;99.90
4934;DHT22;2482;49.154;8.254;2024-01-30T13:07:33;11.30;99.90
4934;DHT22;2482;49.154;8.254;2024-01-30T13:10:01;11.30;99.90
4934;DHT22;2482;49.154;8.254;2024-01-30T13:12:30;11.40;99.90
4934;DHT22;2482;49.154;8.254;2024-01-30T13:14:59;11.50;99.90
4934;DHT22;2482;49.154;8.254;2024-01-30T13:17:31;11.40;99.90
4934;DHT22;2482;49.154;8.254;2024-01-30T13:19:58;11.40;99.90
4934;DHT22;2482;49.154;8.254;2024-01-30T13:22:36;11.40;99.90
4934;DHT22;2482;49.154;8.254;2024-01-30T13:25:06;11.40;99.90
4934;DHT22;2482;49.154;8.254;2024-01-30T13:27:34;11.20;99.90
4934;DHT22;2482;49.154;8.254;2024-01-30T13:30:02;11.10;99.90
4934;DHT22;2482;49.154;8.254;2024-01-30T13:32:38;11.10;99.90
4934;DHT22;2482;49.154;8.254;2024-01-30T13:35:05;11.10;99.90
4934;DHT22;2482;49.154;8.254;2024-01-30T13:37:33;11.10;99.90
4934;DHT22;2482;49.154;8.254;2024-01-30T13:40:00;11.10;99.90
4934;DHT22;2482;49.154;8.254;2024-01-30T13:42:31;11.00;99.90
4934;DHT22;2482;49.154;8.254;2024-01-30T13:44:58;11.00;99.90
4934;DHT22;2482;49.154;8.254;2024-01-30T13:47:25;11.10;99.90
4934;DHT22;2482;49.154;8.254;2024-01-30T13:49:52;11.10;99.90
4934;DHT22;2482;49.154;8.254;2024-01-30T13:52:20;11.10;99.90
4934;DHT22;2482;49.154;8.254;2024-01-30T13:54:51;11.10;99.90
4934;DHT22;2482;49.154;8.254;2024-01-30T13:57:18;11.00;99.90
4934;DHT22;2482;49.154;8.254;2024-01-30T13:59:45;11.00;99.90
4934;DHT22;2482;49.154;8.254;2024-01-30T14:02:13;11.10;99.90
4934;DHT22;2482;49.154;8.254;2024-01-30T14:04:40;11.10;99.90
4934;DHT22;2482;49.154;8.254;2024-01-30T14:07:07;11.10;99.90
4934;DHT22;2482;49.154;8.254;2024-01-30T14:09:35;11.10;99.90
4934;DHT22;2482;49.154;8.254;2024-01-30T14:12:02;11.10;99.90
4934;DHT22;2482;49.154;8.254;2024-01-30T14:14:30;11.00;99.90
4934;DHT22;2482;49.154;8.254;2024-01-30T14:16:56;10.90;99.90
4934;DHT22;2482;49.154;8.254;2024-01-30T14:19:25;10.80;99.90
4934;DHT22;2482;49.154;8.254;2024-01-30T14:21:52;10.90;99.90
4934;DHT22;2482;49.154;8.254;2024-01-30T14:24:19;10.80;99.90
4934;DHT22;2482;49.154;8.254;2024-01-30T14:26:46;10.80;99.90
4934;DHT22;2482;49.154;8.254;2024-01-30T14:29:14;10.80;99.90
4934;DHT22;2482;49.154;8.254;2024-01-30T14:31:41;10.60;99.90
4934;DHT22;2482;49.154;8.254;2024-01-30T14:34:08;10.70;99.90
4934;DHT22;2482;49.154;8.254;2024-01-30T14:36:38;10.70;99.90
4934;DHT22;2482;49.154;8.254;2024-01-30T14:43:28;10.80;99.90
4934;DHT22;2482;49.154;8.254;2024-01-30T14:45:55;10.70;99.90
4934;DHT22;2482;49.154;8.254;2024-01-30T14:48:23;10.70;99.90
4934;DHT22;2482;49.154;8.254;2024-01-30T14:50:50;10.80;99.90
4934;DHT22;2482;49.154;8.254;2024-01-30T14:53:17;10.80;99.90
4934;DHT22;2482;49.154;8.254;2024-01-30T14:55:44;10.70;99.90
4934;DHT22;2482;49.154;8.254;2024-01-30T14:58:12;10.70;99.90
4934;DHT22;2482;49.154;8.254;2024-01-30T15:00:41;10.50;99.90
4934;DHT22;2482;49.154;8.254;2024-01-30T15:03:12;10.60;99.90
4934;DHT22;2482;49.154;8.254;2024-01-30T15:05:42;10.60;99.90
4934;DHT22;2482;49.154;8.254;2024-01-30T15:08:10;10.50;99.90
4934;DHT22;2482;49.154;8.254;2024-01-30T15:10:37;10.40;99.90
4934;DHT22;2482;49.154;8.254;2024-01-30T15:13:10;10.50;99.90
4934;DHT22;2482;49.154;8.254;2024-01-30T15:15:40;10.50;99.90
4934;DHT22;2482;49.154;8.254;2024-01-30T15:18:08;10.50;99.90
4934;DHT22;2482;49.154;8.254;2024-01-30T15:20:38;10.50;99.90
4934;DHT22;2482;49.154;8.254;2024-01-30T15:23:06;10.40;99.90
4934;DHT22;2482;49.154;8.254;2024-01-30T15:25:35;10.40;99.90
4934;DHT22;2482;49.154;8.254;2024-01-30T15:28:02;10.40;99.90
4934;DHT22;2482;49.154;8.254;2024-01-30T15:30:30;10.40;99.90
4934;DHT22;2482;49.154;8.254;2024-01-30T15:32:57;10.40;99.90
4934;DHT22;2482;49.154;8.254;2024-01-30T15:35:24;10.30;99.90
4934;DHT22;2482;49.154;8.254;2024-01-30T15:37:51;10.20;99.90
4934;DHT22;2482;49.154;8.254;2024-01-30T15:40:19;10.30;99.90
4934;DHT22;2482;49.154;8.254;2024-01-30T15:42:48;10.20;99.90
4934;DHT22;2482;49.154;8.254;2024-01-30T15:45:16;10.10;99.90
4934;DHT22;2482;49.154;8.254;2024-01-30T15:47:43;10.00;99.90
4934;DHT22;2482;49.154;8.254;2024-01-30T15:50:11;10.10;99.90
4934;DHT22;2482;49.154;8.254;2024-01-30T15:52:41;10.10;99.90
4934;DHT22;2482;49.154;8.254;2024-01-30T15:55:08;10.00;99.90
4934;DHT22;2482;49.154;8.254;2024-01-30T15:57:35;9.90;99.90
4934;DHT22;2482;49.154;8.254;2024-01-30T16:00:02;10.00;99.90
4934;DHT22;2482;49.154;8.254;2024-01-30T16:02:29;10.10;99.90
4934;DHT22;2482;49.154;8.254;2024-01-30T16:04:57;10.10;99.90
4934;DHT22;2482;49.154;8.254;2024-01-30T16:07:24;10.00;99.90
4934;DHT22;2482;49.154;8.254;2024-01-30T16:09:51;10.00;99.90
4934;DHT22;2482;49.154;8.254;2024-01-30T16:12:18;10.00;99.90
4934;DHT22;2482;49.154;8.254;2024-01-30T16:14:45;9.90;99.90
4934;DHT22;2482;49.154;8.254;2024-01-30T16:17:13;9.90;99.90
4934;DHT22;2482;49.154;8.254;2024-01-30T16:19:40;9.90;99.90
4934;DHT22;2482;49.154;8.254;2024-01-30T16:22:07;10.00;99.90
4934;DHT22;2482;49.154;8.254;2024-01-30T16:24:35;9.90;99.90
4934;DHT22;2482;49.154;8.254;2024-01-30T16:27:03;9.90;99.90
4934;DHT22;2482;49.154;8.254;2024-01-30T16:29:30;10.00;99.90